sensor_id;sensor_type;location;lat;lon;timestamp;P1;durP1;ratioP1;P2;durP2;ratioP2
76380;SDS011;65202;52.520;10.528;2023-06-22T00:01:20;15.45;;;13.95;;
76380;SDS011;65202;52.520;10.528;2023-06-22T00:03:49;17.90;;;13.98;;
76380;SDS011;65202;52.520;10.528;2023-06-22T00:06:17;19.15;;;14.07;;
76380;SDS011;65202;52.520;10.528;2023-06-22T00:08:44;15.68;;;13.80;;
76380;SDS011;65202;52.520;10.528;2023-06-22T00:11:11;15.63;;;13.20;;
76380;SDS011;65202;52.520;10.528;2023-06-22T00:13:39;15.52;;;13.95;;
76380;SDS011;65202;52.520;10.528;2023-06-22T00:16:06;18.40;;;13.85;;
76380;SDS011;65202;52.520;10.528;2023-06-22T00:18:33;15.60;;;13.93;;
76380;SDS011;65202;52.520;10.528;2023-06-22T00:21:01;16.73;;;14.00;;
76380;SDS011;65202;52.520;10.528;2023-06-22T00:23:28;15.52;;;13.77;;
76380;SDS011;65202;52.520;10.528;2023-06-22T00:25:55;15.60;;;13.50;;
76380;SDS011;65202;52.520;10.528;2023-06-22T00:28:22;15.85;;;14.25;;
76380;SDS011;65202;52.520;10.528;2023-06-22T00:30:50;18.13;;;14.75;;
76380;SDS011;65202;52.520;10.528;2023-06-22T00:33:17;18.42;;;14.38;;
76380;SDS011;65202;52.520;10.528;2023-06-22T00:35:44;15.02;;;13.13;;
76380;SDS011;65202;52.520;10.528;2023-06-22T00:38:11;15.98;;;14.35;;
76380;SDS011;65202;52.520;10.528;2023-06-22T00:40:39;15.23;;;13.60;;
76380;SDS011;65202;52.520;10.528;2023-06-22T00:43:06;15.05;;;13.32;;
76380;SDS011;65202;52.520;10.528;2023-06-22T00:45:33;19.13;;;13.82;;
76380;SDS011;65202;52.520;10.528;2023-06-22T00:48:00;15.48;;;13.50;;
76380;SDS011;65202;52.520;10.528;2023-06-22T00:50:30;15.43;;;13.77;;
76380;SDS011;65202;52.520;10.528;2023-06-22T00:53:05;16.80;;;13.53;;
76380;SDS011;65202;52.520;10.528;2023-06-22T00:55:37;14.80;;;13.30;;
76380;SDS011;65202;52.520;10.528;2023-06-22T00:58:10;18.20;;;13.85;;
76380;SDS011;65202;52.520;10.528;2023-06-22T01:00:39;15.63;;;14.02;;
76380;SDS011;65202;52.520;10.528;2023-06-22T01:03:08;16.13;;;13.63;;
76380;SDS011;65202;52.520;10.528;2023-06-22T01:05:37;16.90;;;14.13;;
76380;SDS011;65202;52.520;10.528;2023-06-22T01:08:19;15.95;;;14.25;;
76380;SDS011;65202;52.520;10.528;2023-06-22T01:11:16;14.48;;;12.98;;
76380;SDS011;65202;52.520;10.528;2023-06-22T01:14:06;17.33;;;13.73;;
76380;SDS011;65202;52.520;10.528;2023-06-22T01:16:46;14.85;;;12.85;;
76380;SDS011;65202;52.520;10.528;2023-06-22T01:19:20;14.52;;;13.02;;
76380;SDS011;65202;52.520;10.528;2023-06-22T01:22:36;16.92;;;13.05;;
76380;SDS011;65202;52.520;10.528;2023-06-22T01:25:46;15.57;;;13.63;;
76380;SDS011;65202;52.520;10.528;2023-06-22T01:31:22;16.40;;;13.35;;
76380;SDS011;65202;52.520;10.528;2023-06-22T01:33:54;15.60;;;13.98;;
76380;SDS011;65202;52.520;10.528;2023-06-22T01:36:26;14.57;;;13.05;;
76380;SDS011;65202;52.520;10.528;2023-06-22T01:38:55;17.27;;;14.15;;
76380;SDS011;65202;52.520;10.528;2023-06-22T01:41:25;16.40;;;14.23;;
76380;SDS011;65202;52.520;10.528;2023-06-22T01:43:56;15.82;;;14.18;;
76380;SDS011;65202;52.520;10.528;2023-06-22T01:46:24;18.35;;;15.48;;
76380;SDS011;65202;52.520;10.528;2023-06-22T01:48:52;16.35;;;14.13;;
76380;SDS011;65202;52.520;10.528;2023-06-22T01:51:20;17.63;;;14.93;;
76380;SDS011;65202;52.520;10.528;2023-06-22T01:53:47;18.02;;;14.95;;
76380;SDS011;65202;52.520;10.528;2023-06-22T01:56:17;19.92;;;14.77;;
76380;SDS011;65202;52.520;10.528;2023-06-22T01:58:50;17.35;;;15.38;;
76380;SDS011;65202;52.520;10.528;2023-06-22T02:01:27;16.98;;;14.07;;
76380;SDS011;65202;52.520;10.528;2023-06-22T02:04:08;18.52;;;14.52;;
76380;SDS011;65202;52.520;10.528;2023-06-22T02:06:45;17.35;;;14.85;;
76380;SDS011;65202;52.520;10.528;2023-06-22T02:09:20;19.05;;;14.93;;
76380;SDS011;65202;52.520;10.528;2023-06-22T02:11:52;17.50;;;15.27;;
76380;SDS011;65202;52.520;10.528;2023-06-22T02:14:23;21.43;;;16.87;;
76380;SDS011;65202;52.520;10.528;2023-06-22T02:16:51;16.60;;;14.90;;
76380;SDS011;65202;52.520;10.528;2023-06-22T02:19:23;17.50;;;15.27;;
76380;SDS011;65202;52.520;10.528;2023-06-22T02:21:51;18.05;;;14.93;;
76380;SDS011;65202;52.520;10.528;2023-06-22T02:24:19;16.38;;;14.38;;
76380;SDS011;65202;52.520;10.528;2023-06-22T02:26:46;18.50;;;15.00;;
76380;SDS011;65202;52.520;10.528;2023-06-22T02:29:13;18.15;;;14.90;;
76380;SDS011;65202;52.520;10.528;2023-06-22T02:31:40;17.25;;;14.40;;
76380;SDS011;65202;52.520;10.528;2023-06-22T02:34:08;16.25;;;14.55;;
76380;SDS011;65202;52.520;10.528;2023-06-22T02:36:35;15.85;;;14.18;;
76380;SDS011;65202;52.520;10.528;2023-06-22T02:39:02;15.98;;;14.30;;
76380;SDS011;65202;52.520;10.528;2023-06-22T02:41:30;16.02;;;14.32;;
76380;SDS011;65202;52.520;10.528;2023-06-22T02:43:57;17.48;;;15.10;;
76380;SDS011;65202;52.520;10.528;2023-06-22T02:46:25;16.65;;;14.23;;
76380;SDS011;65202;52.520;10.528;2023-06-22T02:48:52;16.63;;;14.93;;
76380;SDS011;65202;52.520;10.528;2023-06-22T02:51:19;18.08;;;14.98;;
76380;SDS011;65202;52.520;10.528;2023-06-22T02:53:47;16.65;;;14.80;;
76380;SDS011;65202;52.520;10.528;2023-06-22T02:56:14;16.50;;;14.38;;
76380;SDS011;65202;52.520;10.528;2023-06-22T02:58:42;16.30;;;14.45;;
76380;SDS011;65202;52.520;10.528;2023-06-22T03:01:09;18.40;;;14.73;;
76380;SDS011;65202;52.520;10.528;2023-06-22T03:03:39;17.98;;;13.95;;
76380;SDS011;65202;52.520;10.528;2023-06-22T03:06:07;17.30;;;13.63;;
76380;SDS011;65202;52.520;10.528;2023-06-22T03:08:36;17.20;;;14.15;;
76380;SDS011;65202;52.520;10.528;2023-06-22T03:11:04;16.25;;;14.55;;
76380;SDS011;65202;52.520;10.528;2023-06-22T03:13:31;15.88;;;13.50;;
76380;SDS011;65202;52.520;10.528;2023-06-22T03:15:58;15.75;;;13.82;;
76380;SDS011;65202;52.520;10.528;2023-06-22T03:18:25;16.00;;;14.05;;
76380;SDS011;65202;52.520;10.528;2023-06-22T03:20:52;15.20;;;13.60;;
76380;SDS011;65202;52.520;10.528;2023-06-22T03:23:20;16.17;;;13.77;;
76380;SDS011;65202;52.520;10.528;2023-06-22T03:25:47;16.58;;;14.15;;
76380;SDS011;65202;52.520;10.528;2023-06-22T03:28:14;15.32;;;13.68;;
76380;SDS011;65202;52.520;10.528;2023-06-22T03:30:41;16.55;;;14.85;;
76380;SDS011;65202;52.520;10.528;2023-06-22T03:33:08;15.57;;;14.02;;
76380;SDS011;65202;52.520;10.528;2023-06-22T03:35:36;15.50;;;13.90;;
76380;SDS011;65202;52.520;10.528;2023-06-22T03:38:03;15.65;;;13.88;;
76380;SDS011;65202;52.520;10.528;2023-06-22T03:40:30;16.05;;;14.38;;
76380;SDS011;65202;52.520;10.528;2023-06-22T03:42:58;18.45;;;13.82;;
76380;SDS011;65202;52.520;10.528;2023-06-22T03:45:25;17.67;;;14.68;;
76380;SDS011;65202;52.520;10.528;2023-06-22T03:47:52;17.15;;;14.02;;
76380;SDS011;65202;52.520;10.528;2023-06-22T03:50:20;18.80;;;14.30;;
76380;SDS011;65202;52.520;10.528;2023-06-22T03:52:47;15.55;;;14.05;;
76380;SDS011;65202;52.520;10.528;2023-06-22T03:55:14;18.02;;;14.13;;
76380;SDS011;65202;52.520;10.528;2023-06-22T03:57:41;16.05;;;14.35;;
76380;SDS011;65202;52.520;10.528;2023-06-22T04:00:09;17.02;;;14.27;;
76380;SDS011;65202;52.520;10.528;2023-06-22T04:02:37;16.77;;;14.52;;
76380;SDS011;65202;52.520;10.528;2023-06-22T04:05:05;15.77;;;14.00;;
76380;SDS011;65202;52.520;10.528;2023-06-22T04:07:33;18.70;;;14.02;;
76380;SDS011;65202;52.520;10.528;2023-06-22T04:10:00;20.35;;;14.63;;
76380;SDS011;65202;52.520;10.528;2023-06-22T04:12:27;15.45;;;13.10;;
76380;SDS011;65202;52.520;10.528;2023-06-22T04:14:55;14.98;;;13.48;;
76380;SDS011;65202;52.520;10.528;2023-06-22T04:17:22;17.30;;;13.25;;
76380;SDS011;65202;52.520;10.528;2023-06-22T04:19:51;17.10;;;13.57;;
76380;SDS011;65202;52.520;10.528;2023-06-22T04:22:19;16.95;;;13.43;;
76380;SDS011;65202;52.520;10.528;2023-06-22T04:24:46;16.67;;;13.52;;
76380;SDS011;65202;52.520;10.528;2023-06-22T04:27:13;15.88;;;13.05;;
76380;SDS011;65202;52.520;10.528;2023-06-22T04:29:40;14.32;;;12.25;;
76380;SDS011;65202;52.520;10.528;2023-06-22T04:32:15;14.85;;;12.70;;
76380;SDS011;65202;52.520;10.528;2023-06-22T04:34:43;17.10;;;13.13;;
76380;SDS011;65202;52.520;10.528;2023-06-22T04:37:10;16.35;;;13.07;;
76380;SDS011;65202;52.520;10.528;2023-06-22T04:39:42;14.77;;;13.03;;
76380;SDS011;65202;52.520;10.528;2023-06-22T04:42:11;13.68;;;12.27;;
76380;SDS011;65202;52.520;10.528;2023-06-22T04:44:39;20.77;;;12.77;;
76380;SDS011;65202;52.520;10.528;2023-06-22T04:47:08;13.80;;;11.98;;
76380;SDS011;65202;52.520;10.528;2023-06-22T04:49:36;15.38;;;12.50;;
76380;SDS011;65202;52.520;10.528;2023-06-22T04:52:07;18.20;;;12.50;;
76380;SDS011;65202;52.520;10.528;2023-06-22T04:54:36;17.67;;;12.73;;
76380;SDS011;65202;52.520;10.528;2023-06-22T04:57:06;14.40;;;11.80;;
76380;SDS011;65202;52.520;10.528;2023-06-22T04:59:37;13.68;;;11.57;;
76380;SDS011;65202;52.520;10.528;2023-06-22T05:02:09;14.20;;;12.27;;
76380;SDS011;65202;52.520;10.528;2023-06-22T05:04:36;13.25;;;11.40;;
76380;SDS011;65202;52.520;10.528;2023-06-22T05:07:06;15.65;;;12.43;;
76380;SDS011;65202;52.520;10.528;2023-06-22T05:09:33;13.18;;;11.27;;
76380;SDS011;65202;52.520;10.528;2023-06-22T05:12:01;17.13;;;10.65;;
76380;SDS011;65202;52.520;10.528;2023-06-22T05:14:33;14.15;;;10.98;;
76380;SDS011;65202;52.520;10.528;2023-06-22T05:17:00;16.45;;;11.60;;
76380;SDS011;65202;52.520;10.528;2023-06-22T05:19:30;12.95;;;10.60;;
76380;SDS011;65202;52.520;10.528;2023-06-22T05:22:01;15.45;;;10.68;;
76380;SDS011;65202;52.520;10.528;2023-06-22T05:24:28;12.85;;;9.90;;
76380;SDS011;65202;52.520;10.528;2023-06-22T05:26:55;12.32;;;10.07;;
76380;SDS011;65202;52.520;10.528;2023-06-22T05:29:22;12.55;;;10.40;;
76380;SDS011;65202;52.520;10.528;2023-06-22T05:31:50;13.65;;;10.77;;
76380;SDS011;65202;52.520;10.528;2023-06-22T05:34:17;12.65;;;10.25;;
76380;SDS011;65202;52.520;10.528;2023-06-22T05:36:44;11.75;;;9.95;;
76380;SDS011;65202;52.520;10.528;2023-06-22T05:39:12;11.77;;;10.23;;
76380;SDS011;65202;52.520;10.528;2023-06-22T05:41:40;13.20;;;11.05;;
76380;SDS011;65202;52.520;10.528;2023-06-22T05:44:08;13.32;;;10.63;;
76380;SDS011;65202;52.520;10.528;2023-06-22T05:46:36;12.38;;;10.75;;
76380;SDS011;65202;52.520;10.528;2023-06-22T05:49:03;11.38;;;10.18;;
76380;SDS011;65202;52.520;10.528;2023-06-22T05:51:30;12.00;;;10.73;;
76380;SDS011;65202;52.520;10.528;2023-06-22T05:53:57;11.68;;;9.68;;
76380;SDS011;65202;52.520;10.528;2023-06-22T05:56:24;13.32;;;10.48;;
76380;SDS011;65202;52.520;10.528;2023-06-22T05:58:52;12.15;;;10.20;;
76380;SDS011;65202;52.520;10.528;2023-06-22T06:01:20;14.85;;;10.13;;
76380;SDS011;65202;52.520;10.528;2023-06-22T06:03:47;11.40;;;10.20;;
76380;SDS011;65202;52.520;10.528;2023-06-22T06:06:16;14.60;;;9.60;;
76380;SDS011;65202;52.520;10.528;2023-06-22T06:08:43;10.80;;;9.57;;
76380;SDS011;65202;52.520;10.528;2023-06-22T06:11:11;10.95;;;9.30;;
76380;SDS011;65202;52.520;10.528;2023-06-22T06:13:38;13.05;;;8.65;;
76380;SDS011;65202;52.520;10.528;2023-06-22T06:16:05;13.05;;;8.13;;
76380;SDS011;65202;52.520;10.528;2023-06-22T06:18:32;11.13;;;7.85;;
76380;SDS011;65202;52.520;10.528;2023-06-22T06:21:00;10.85;;;7.35;;
76380;SDS011;65202;52.520;10.528;2023-06-22T06:23:27;10.73;;;6.93;;
76380;SDS011;65202;52.520;10.528;2023-06-22T06:25:54;12.35;;;7.07;;
76380;SDS011;65202;52.520;10.528;2023-06-22T06:28:22;12.05;;;6.97;;
76380;SDS011;65202;52.520;10.528;2023-06-22T06:30:49;11.90;;;7.30;;
76380;SDS011;65202;52.520;10.528;2023-06-22T06:33:18;10.02;;;7.05;;
76380;SDS011;65202;52.520;10.528;2023-06-22T06:35:50;10.95;;;7.10;;
76380;SDS011;65202;52.520;10.528;2023-06-22T06:38:18;13.07;;;7.80;;
76380;SDS011;65202;52.520;10.528;2023-06-22T06:40:45;10.85;;;7.50;;
76380;SDS011;65202;52.520;10.528;2023-06-22T06:43:12;10.70;;;7.25;;
76380;SDS011;65202;52.520;10.528;2023-06-22T06:45:39;10.35;;;7.05;;
76380;SDS011;65202;52.520;10.528;2023-06-22T06:48:06;10.25;;;7.40;;
76380;SDS011;65202;52.520;10.528;2023-06-22T06:50:34;10.43;;;7.43;;
76380;SDS011;65202;52.520;10.528;2023-06-22T06:53:01;10.35;;;7.15;;
76380;SDS011;65202;52.520;10.528;2023-06-22T06:55:28;12.40;;;6.88;;
76380;SDS011;65202;52.520;10.528;2023-06-22T06:57:59;11.90;;;7.32;;
76380;SDS011;65202;52.520;10.528;2023-06-22T07:00:27;12.93;;;7.28;;
76380;SDS011;65202;52.520;10.528;2023-06-22T07:02:55;12.68;;;7.35;;
76380;SDS011;65202;52.520;10.528;2023-06-22T07:05:23;13.60;;;7.78;;
76380;SDS011;65202;52.520;10.528;2023-06-22T07:07:50;12.75;;;6.90;;
76380;SDS011;65202;52.520;10.528;2023-06-22T07:10:17;9.63;;;7.32;;
76380;SDS011;65202;52.520;10.528;2023-06-22T07:12:44;10.15;;;7.47;;
76380;SDS011;65202;52.520;10.528;2023-06-22T07:15:12;13.52;;;7.30;;
76380;SDS011;65202;52.520;10.528;2023-06-22T07:17:40;10.05;;;7.32;;
76380;SDS011;65202;52.520;10.528;2023-06-22T07:20:08;9.95;;;6.90;;
76380;SDS011;65202;52.520;10.528;2023-06-22T07:22:42;9.40;;;7.25;;
76380;SDS011;65202;52.520;10.528;2023-06-22T07:25:14;12.60;;;7.80;;
76380;SDS011;65202;52.520;10.528;2023-06-22T07:27:57;11.25;;;7.05;;
76380;SDS011;65202;52.520;10.528;2023-06-22T07:30:31;10.95;;;6.72;;
76380;SDS011;65202;52.520;10.528;2023-06-22T07:33:00;12.35;;;7.10;;
76380;SDS011;65202;52.520;10.528;2023-06-22T07:35:35;10.82;;;7.20;;
76380;SDS011;65202;52.520;10.528;2023-06-22T07:38:02;9.15;;;7.70;;
76380;SDS011;65202;52.520;10.528;2023-06-22T07:40:32;10.63;;;7.50;;
76380;SDS011;65202;52.520;10.528;2023-06-22T07:43:01;12.55;;;7.78;;
76380;SDS011;65202;52.520;10.528;2023-06-22T07:45:29;12.10;;;8.13;;
76380;SDS011;65202;52.520;10.528;2023-06-22T07:47:56;14.45;;;7.63;;
76380;SDS011;65202;52.520;10.528;2023-06-22T07:50:24;9.98;;;7.35;;
76380;SDS011;65202;52.520;10.528;2023-06-22T07:52:51;15.70;;;8.93;;
76380;SDS011;65202;52.520;10.528;2023-06-22T07:55:19;11.93;;;8.82;;
76380;SDS011;65202;52.520;10.528;2023-06-22T07:57:47;10.43;;;8.40;;
76380;SDS011;65202;52.520;10.528;2023-06-22T08:00:16;13.13;;;8.95;;
76380;SDS011;65202;52.520;10.528;2023-06-22T08:02:45;15.40;;;8.95;;
76380;SDS011;65202;52.520;10.528;2023-06-22T08:05:14;10.00;;;8.32;;
76380;SDS011;65202;52.520;10.528;2023-06-22T08:07:48;11.13;;;8.95;;
76380;SDS011;65202;52.520;10.528;2023-06-22T08:10:16;10.65;;;9.55;;
76380;SDS011;65202;52.520;10.528;2023-06-22T08:12:44;14.23;;;10.90;;
76380;SDS011;65202;52.520;10.528;2023-06-22T08:15:11;11.02;;;9.13;;
76380;SDS011;65202;52.520;10.528;2023-06-22T08:17:38;10.80;;;9.70;;
76380;SDS011;65202;52.520;10.528;2023-06-22T08:20:06;14.38;;;9.18;;
76380;SDS011;65202;52.520;10.528;2023-06-22T08:22:36;13.38;;;9.18;;
76380;SDS011;65202;52.520;10.528;2023-06-22T08:25:04;14.93;;;9.55;;
76380;SDS011;65202;52.520;10.528;2023-06-22T08:27:31;15.32;;;10.25;;
76380;SDS011;65202;52.520;10.528;2023-06-22T08:29:59;12.55;;;10.95;;
76380;SDS011;65202;52.520;10.528;2023-06-22T08:32:27;12.02;;;10.65;;
76380;SDS011;65202;52.520;10.528;2023-06-22T08:34:56;12.07;;;10.48;;
76380;SDS011;65202;52.520;10.528;2023-06-22T08:37:24;15.20;;;9.48;;
76380;SDS011;65202;52.520;10.528;2023-06-22T08:39:58;12.10;;;9.98;;
76380;SDS011;65202;52.520;10.528;2023-06-22T08:42:28;12.32;;;11.02;;
76380;SDS011;65202;52.520;10.528;2023-06-22T08:44:55;15.00;;;10.93;;
76380;SDS011;65202;52.520;10.528;2023-06-22T08:47:22;13.80;;;10.98;;
76380;SDS011;65202;52.520;10.528;2023-06-22T08:49:50;12.05;;;9.90;;
76380;SDS011;65202;52.520;10.528;2023-06-22T08:52:17;19.17;;;10.75;;
76380;SDS011;65202;52.520;10.528;2023-06-22T08:54:47;11.07;;;9.75;;
76380;SDS011;65202;52.520;10.528;2023-06-22T08:57:14;14.10;;;11.23;;
76380;SDS011;65202;52.520;10.528;2023-06-22T08:59:42;13.27;;;11.40;;
76380;SDS011;65202;52.520;10.528;2023-06-22T09:02:10;13.63;;;11.23;;
76380;SDS011;65202;52.520;10.528;2023-06-22T09:04:37;12.00;;;10.80;;
76380;SDS011;65202;52.520;10.528;2023-06-22T09:07:05;18.65;;;11.88;;
76380;SDS011;65202;52.520;10.528;2023-06-22T09:09:32;15.60;;;14.05;;
76380;SDS011;65202;52.520;10.528;2023-06-22T09:11:59;12.80;;;11.50;;
76380;SDS011;65202;52.520;10.528;2023-06-22T09:14:26;13.63;;;12.23;;
76380;SDS011;65202;52.520;10.528;2023-06-22T09:16:54;18.55;;;12.40;;
76380;SDS011;65202;52.520;10.528;2023-06-22T09:19:21;17.42;;;12.10;;
76380;SDS011;65202;52.520;10.528;2023-06-22T09:21:48;14.82;;;11.75;;
76380;SDS011;65202;52.520;10.528;2023-06-22T09:24:15;13.52;;;12.20;;
76380;SDS011;65202;52.520;10.528;2023-06-22T09:26:43;18.65;;;12.00;;
76380;SDS011;65202;52.520;10.528;2023-06-22T09:29:11;14.02;;;12.63;;
76380;SDS011;65202;52.520;10.528;2023-06-22T09:31:38;13.82;;;12.27;;
76380;SDS011;65202;52.520;10.528;2023-06-22T09:34:05;13.48;;;12.07;;
76380;SDS011;65202;52.520;10.528;2023-06-22T09:36:33;16.75;;;13.45;;
76380;SDS011;65202;52.520;10.528;2023-06-22T09:39:00;18.77;;;12.40;;
76380;SDS011;65202;52.520;10.528;2023-06-22T09:43:59;19.48;;;12.45;;
76380;SDS011;65202;52.520;10.528;2023-06-22T09:46:26;15.57;;;12.85;;
76380;SDS011;65202;52.520;10.528;2023-06-22T09:48:54;13.32;;;11.65;;
76380;SDS011;65202;52.520;10.528;2023-06-22T09:51:22;16.15;;;11.70;;
76380;SDS011;65202;52.520;10.528;2023-06-22T09:53:50;14.00;;;12.60;;
76380;SDS011;65202;52.520;10.528;2023-06-22T09:56:20;13.27;;;11.95;;
76380;SDS011;65202;52.520;10.528;2023-06-22T09:58:47;16.95;;;11.93;;
76380;SDS011;65202;52.520;10.528;2023-06-22T10:01:18;17.73;;;11.93;;
76380;SDS011;65202;52.520;10.528;2023-06-22T10:03:47;14.30;;;12.10;;
76380;SDS011;65202;52.520;10.528;2023-06-22T10:06:15;14.15;;;11.55;;
76380;SDS011;65202;52.520;10.528;2023-06-22T10:08:42;13.30;;;11.52;;
76380;SDS011;65202;52.520;10.528;2023-06-22T10:11:09;12.95;;;11.50;;
76380;SDS011;65202;52.520;10.528;2023-06-22T10:13:37;15.90;;;11.80;;
76380;SDS011;65202;52.520;10.528;2023-06-22T10:16:04;13.45;;;10.25;;
76380;SDS011;65202;52.520;10.528;2023-06-22T10:18:31;14.35;;;11.63;;
76380;SDS011;65202;52.520;10.528;2023-06-22T10:20:59;17.15;;;12.05;;
76380;SDS011;65202;52.520;10.528;2023-06-22T10:23:26;14.90;;;12.38;;
76380;SDS011;65202;52.520;10.528;2023-06-22T10:25:53;17.75;;;11.93;;
76380;SDS011;65202;52.520;10.528;2023-06-22T10:28:21;13.10;;;11.70;;
76380;SDS011;65202;52.520;10.528;2023-06-22T10:30:48;15.45;;;10.98;;
76380;SDS011;65202;52.520;10.528;2023-06-22T10:33:15;14.70;;;12.35;;
76380;SDS011;65202;52.520;10.528;2023-06-22T10:35:42;15.27;;;12.40;;
76380;SDS011;65202;52.520;10.528;2023-06-22T10:38:10;13.98;;;12.57;;
76380;SDS011;65202;52.520;10.528;2023-06-22T10:40:37;13.70;;;11.52;;
76380;SDS011;65202;52.520;10.528;2023-06-22T10:43:06;14.02;;;11.82;;
76380;SDS011;65202;52.520;10.528;2023-06-22T10:45:33;16.83;;;12.75;;
76380;SDS011;65202;52.520;10.528;2023-06-22T10:48:00;18.58;;;13.05;;
76380;SDS011;65202;52.520;10.528;2023-06-22T10:50:28;14.20;;;12.23;;
76380;SDS011;65202;52.520;10.528;2023-06-22T10:52:55;16.80;;;12.13;;
76380;SDS011;65202;52.520;10.528;2023-06-22T10:55:26;14.75;;;12.02;;
76380;SDS011;65202;52.520;10.528;2023-06-22T10:58:00;13.32;;;11.55;;
76380;SDS011;65202;52.520;10.528;2023-06-22T11:00:27;14.45;;;12.20;;
76380;SDS011;65202;52.520;10.528;2023-06-22T11:02:55;14.43;;;12.57;;
76380;SDS011;65202;52.520;10.528;2023-06-22T11:05:22;14.82;;;12.90;;
76380;SDS011;65202;52.520;10.528;2023-06-22T11:07:49;17.58;;;14.18;;
76380;SDS011;65202;52.520;10.528;2023-06-22T11:10:17;15.23;;;12.93;;
76380;SDS011;65202;52.520;10.528;2023-06-22T11:12:44;15.13;;;12.00;;
76380;SDS011;65202;52.520;10.528;2023-06-22T11:15:12;13.48;;;11.20;;
76380;SDS011;65202;52.520;10.528;2023-06-22T11:17:39;14.45;;;11.80;;
76380;SDS011;65202;52.520;10.528;2023-06-22T11:20:06;19.27;;;15.52;;
76380;SDS011;65202;52.520;10.528;2023-06-22T11:22:38;17.35;;;12.30;;
76380;SDS011;65202;52.520;10.528;2023-06-22T11:25:07;14.02;;;11.23;;
76380;SDS011;65202;52.520;10.528;2023-06-22T11:27:35;14.63;;;11.05;;
76380;SDS011;65202;52.520;10.528;2023-06-22T11:30:02;13.75;;;12.10;;
76380;SDS011;65202;52.520;10.528;2023-06-22T11:32:30;14.63;;;11.88;;
76380;SDS011;65202;52.520;10.528;2023-06-22T11:34:58;14.65;;;12.05;;
76380;SDS011;65202;52.520;10.528;2023-06-22T11:37:25;18.17;;;12.43;;
76380;SDS011;65202;52.520;10.528;2023-06-22T11:39:53;17.65;;;12.18;;
76380;SDS011;65202;52.520;10.528;2023-06-22T11:42:33;14.23;;;11.40;;
76380;SDS011;65202;52.520;10.528;2023-06-22T11:45:01;18.85;;;11.93;;
76380;SDS011;65202;52.520;10.528;2023-06-22T11:47:32;19.20;;;12.65;;
76380;SDS011;65202;52.520;10.528;2023-06-22T11:49:59;13.25;;;11.95;;
76380;SDS011;65202;52.520;10.528;2023-06-22T11:52:26;12.45;;;11.25;;
76380;SDS011;65202;52.520;10.528;2023-06-22T11:54:54;13.55;;;11.63;;
76380;SDS011;65202;52.520;10.528;2023-06-22T11:57:21;17.80;;;12.10;;
76380;SDS011;65202;52.520;10.528;2023-06-22T11:59:48;14.32;;;12.15;;
76380;SDS011;65202;52.520;10.528;2023-06-22T12:02:15;14.25;;;12.60;;
76380;SDS011;65202;52.520;10.528;2023-06-22T12:04:43;15.30;;;12.40;;
76380;SDS011;65202;52.520;10.528;2023-06-22T12:07:10;16.23;;;13.20;;
76380;SDS011;65202;52.520;10.528;2023-06-22T12:09:37;14.38;;;12.20;;
76380;SDS011;65202;52.520;10.528;2023-06-22T12:12:04;14.57;;;12.82;;
76380;SDS011;65202;52.520;10.528;2023-06-22T12:14:32;14.75;;;13.15;;
76380;SDS011;65202;52.520;10.528;2023-06-22T12:17:00;18.88;;;12.65;;
76380;SDS011;65202;52.520;10.528;2023-06-22T12:19:27;13.77;;;12.18;;
76380;SDS011;65202;52.520;10.528;2023-06-22T12:21:54;14.15;;;12.60;;
76380;SDS011;65202;52.520;10.528;2023-06-22T12:24:22;17.02;;;12.50;;
76380;SDS011;65202;52.520;10.528;2023-06-22T12:26:49;16.88;;;12.85;;
76380;SDS011;65202;52.520;10.528;2023-06-22T12:29:16;15.55;;;11.63;;
76380;SDS011;65202;52.520;10.528;2023-06-22T12:31:43;13.98;;;12.57;;
76380;SDS011;65202;52.520;10.528;2023-06-22T12:34:11;18.52;;;12.80;;
76380;SDS011;65202;52.520;10.528;2023-06-22T12:36:38;15.93;;;11.80;;
76380;SDS011;65202;52.520;10.528;2023-06-22T12:39:05;17.08;;;11.75;;
76380;SDS011;65202;52.520;10.528;2023-06-22T12:41:33;14.25;;;11.75;;
76380;SDS011;65202;52.520;10.528;2023-06-22T12:44:00;16.65;;;12.23;;
76380;SDS011;65202;52.520;10.528;2023-06-22T12:46:27;13.68;;;11.30;;
76380;SDS011;65202;52.520;10.528;2023-06-22T12:48:54;14.00;;;11.05;;
76380;SDS011;65202;52.520;10.528;2023-06-22T12:51:22;18.38;;;12.05;;
76380;SDS011;65202;52.520;10.528;2023-06-22T12:53:51;18.75;;;11.50;;
76380;SDS011;65202;52.520;10.528;2023-06-22T12:56:18;12.35;;;11.10;;
76380;SDS011;65202;52.520;10.528;2023-06-22T12:58:46;15.95;;;11.68;;
76380;SDS011;65202;52.520;10.528;2023-06-22T13:01:13;13.38;;;11.40;;
76380;SDS011;65202;52.520;10.528;2023-06-22T13:03:41;14.63;;;11.50;;
76380;SDS011;65202;52.520;10.528;2023-06-22T13:06:09;16.20;;;11.90;;
76380;SDS011;65202;52.520;10.528;2023-06-22T13:08:36;13.48;;;11.05;;
76380;SDS011;65202;52.520;10.528;2023-06-22T13:11:23;11.85;;;10.45;;
76380;SDS011;65202;52.520;10.528;2023-06-22T13:13:50;12.15;;;10.52;;
76380;SDS011;65202;52.520;10.528;2023-06-22T13:16:17;12.77;;;10.93;;
76380;SDS011;65202;52.520;10.528;2023-06-22T13:18:45;14.65;;;11.48;;
76380;SDS011;65202;52.520;10.528;2023-06-22T13:21:12;13.90;;;11.30;;
76380;SDS011;65202;52.520;10.528;2023-06-22T13:23:41;16.00;;;11.48;;
76380;SDS011;65202;52.520;10.528;2023-06-22T13:26:08;19.95;;;12.07;;
76380;SDS011;65202;52.520;10.528;2023-06-22T13:28:35;15.90;;;11.32;;
76380;SDS011;65202;52.520;10.528;2023-06-22T13:31:02;17.15;;;11.80;;
76380;SDS011;65202;52.520;10.528;2023-06-22T13:33:29;17.98;;;11.18;;
76380;SDS011;65202;52.520;10.528;2023-06-22T13:35:57;13.07;;;11.07;;
76380;SDS011;65202;52.520;10.528;2023-06-22T13:38:24;14.38;;;11.52;;
76380;SDS011;65202;52.520;10.528;2023-06-22T13:40:51;13.18;;;11.77;;
76380;SDS011;65202;52.520;10.528;2023-06-22T13:43:19;13.15;;;11.27;;
76380;SDS011;65202;52.520;10.528;2023-06-22T13:45:46;16.98;;;11.30;;
76380;SDS011;65202;52.520;10.528;2023-06-22T13:48:13;16.73;;;11.02;;
76380;SDS011;65202;52.520;10.528;2023-06-22T13:50:41;15.43;;;11.23;;
76380;SDS011;65202;52.520;10.528;2023-06-22T13:53:08;13.45;;;10.90;;
76380;SDS011;65202;52.520;10.528;2023-06-22T13:55:35;17.10;;;10.90;;
76380;SDS011;65202;52.520;10.528;2023-06-22T13:58:02;14.65;;;10.27;;
76380;SDS011;65202;52.520;10.528;2023-06-22T14:00:29;14.02;;;10.65;;
76380;SDS011;65202;52.520;10.528;2023-06-22T14:02:57;13.32;;;9.80;;
76380;SDS011;65202;52.520;10.528;2023-06-22T14:05:25;10.82;;;9.73;;
76380;SDS011;65202;52.520;10.528;2023-06-22T14:07:52;12.15;;;10.15;;
76380;SDS011;65202;52.520;10.528;2023-06-22T14:10:19;12.18;;;9.52;;
76380;SDS011;65202;52.520;10.528;2023-06-22T14:12:46;12.93;;;10.20;;
76380;SDS011;65202;52.520;10.528;2023-06-22T14:15:14;13.85;;;9.98;;
76380;SDS011;65202;52.520;10.528;2023-06-22T14:17:41;12.57;;;9.63;;
76380;SDS011;65202;52.520;10.528;2023-06-22T14:20:08;13.15;;;9.90;;
76380;SDS011;65202;52.520;10.528;2023-06-22T14:22:36;10.85;;;9.48;;
76380;SDS011;65202;52.520;10.528;2023-06-22T14:25:04;15.18;;;8.95;;